createdAt,value
2022-11-22T00:00:27.109Z,15.00
2022-11-22T00:03:02.907Z,15.00
2022-11-22T00:05:39.592Z,15.10
2022-11-22T00:08:14.473Z,15.30
2022-11-22T00:10:51.383Z,15.30
2022-11-22T00:13:27.960Z,15.40
2022-11-22T00:16:06.577Z,15.50
2022-11-22T00:18:40.731Z,15.60
2022-11-22T00:21:17.594Z,15.80
2022-11-22T00:23:51.867Z,16.00
2022-11-22T00:26:26.225Z,16.20
2022-11-22T00:29:01.072Z,16.40
2022-11-22T00:31:36.099Z,16.50
2022-11-22T00:34:10.934Z,16.70
2022-11-22T00:36:47.488Z,16.80
2022-11-22T00:39:23.223Z,16.90
2022-11-22T00:41:57.728Z,17.00
2022-11-22T00:44:32.976Z,17.20
2022-11-22T00:47:07.593Z,17.40
2022-11-22T00:49:41.947Z,17.50
2022-11-22T00:52:20.691Z,17.60
2022-11-22T00:54:55.267Z,17.90
2022-11-22T00:57:29.650Z,18.30
2022-11-22T01:00:03.671Z,18.50
2022-11-22T01:02:38.796Z,18.60
2022-11-22T01:05:13.375Z,19.10
2022-11-22T01:07:50.025Z,19.10
2022-11-22T01:10:24.377Z,19.30
2022-11-22T01:12:58.834Z,19.30
2022-11-22T01:15:33.336Z,19.40
2022-11-22T01:18:08.512Z,19.50
2022-11-22T01:20:45.164Z,19.50
2022-11-22T01:23:21.091Z,19.60
2022-11-22T01:25:56.235Z,19.70
2022-11-22T01:28:31.366Z,20.30
2022-11-22T01:31:06.706Z,20.70
2022-11-22T01:33:41.837Z,20.90
2022-11-22T01:36:16.978Z,21.10
2022-11-22T01:38:53.733Z,21.10
2022-11-22T01:41:28.377Z,21.50
2022-11-22T01:44:02.563Z,22.00
2022-11-22T01:46:40.195Z,22.10
2022-11-22T01:49:26.206Z,21.90
2022-11-22T01:52:07.292Z,22.20
2022-11-22T01:54:48.549Z,22.20
2022-11-22T01:57:26.887Z,22.90
2022-11-22T02:00:05.122Z,22.90
2022-11-22T02:02:41.318Z,22.70
2022-11-22T02:05:20.205Z,22.70
2022-11-22T02:07:59.747Z,23.10
2022-11-22T02:10:39.603Z,23.20
2022-11-22T02:13:14.950Z,23.60
2022-11-22T02:15:50.270Z,23.60
2022-11-22T02:18:24.355Z,23.70
2022-11-22T02:21:00.178Z,24.20
2022-11-22T02:23:43.715Z,24.00
2022-11-22T02:26:20.527Z,23.50
2022-11-22T02:28:57.077Z,23.70
2022-11-22T02:31:46.362Z,23.60
2022-11-22T02:34:21.338Z,24.10
2022-11-22T02:36:58.831Z,23.70
2022-11-22T02:39:37.779Z,23.20
2022-11-22T02:42:14.418Z,23.10
2022-11-22T02:44:51.822Z,22.80
2022-11-22T02:47:26.226Z,22.80
2022-11-22T02:50:01.059Z,22.80
2022-11-22T02:52:38.063Z,23.10
2022-11-22T02:55:13.187Z,22.80
2022-11-22T02:57:50.753Z,22.90
2022-11-22T03:00:25.836Z,23.20
2022-11-22T03:03:01.508Z,23.00
2022-11-22T03:05:37.144Z,23.20
2022-11-22T03:08:12.781Z,23.20
2022-11-22T03:10:47.526Z,23.00
2022-11-22T03:13:24.522Z,22.70
2022-11-22T03:16:00.279Z,22.60
2022-11-22T03:18:34.623Z,22.80
2022-11-22T03:21:10.012Z,22.60
2022-11-22T03:23:45.433Z,22.50
2022-11-22T03:26:20.057Z,22.40
2022-11-22T03:28:56.291Z,22.00
2022-11-22T03:31:31.581Z,21.80
2022-11-22T03:34:07.031Z,21.50
2022-11-22T03:36:41.503Z,21.40
2022-11-22T03:39:16.140Z,21.40
2022-11-22T03:41:50.697Z,21.10
2022-11-22T03:44:26.722Z,21.20
2022-11-22T03:47:01.355Z,21.00
2022-11-22T03:49:36.130Z,21.20
2022-11-22T03:52:10.616Z,21.10
2022-11-22T03:54:45.206Z,20.90
2022-11-22T03:57:19.610Z,21.00
2022-11-22T04:00:05.374Z,20.80
2022-11-22T04:02:46.174Z,20.50
2022-11-22T04:05:21.953Z,20.40
2022-11-22T04:07:58.813Z,20.50
2022-11-22T04:10:33.512Z,20.90
2022-11-22T04:13:07.658Z,21.10
2022-11-22T04:15:43.348Z,21.40
2022-11-22T04:18:19.285Z,21.40
2022-11-22T04:21:11.554Z,21.20
2022-11-22T04:24:07.327Z,21.10
2022-11-22T04:26:40.542Z,20.90
2022-11-22T04:29:14.878Z,20.80
2022-11-22T04:32:07.058Z,20.60
2022-11-22T04:34:42.997Z,20.70
2022-11-22T04:37:18.221Z,20.80
2022-11-22T04:39:53.402Z,20.90
2022-11-22T04:42:43.571Z,21.00
2022-11-22T04:45:22.275Z,20.90
2022-11-22T04:48:05.040Z,20.80
2022-11-22T04:50:55.396Z,20.90
2022-11-22T04:53:31.562Z,21.20
2022-11-22T04:56:06.738Z,21.20
2022-11-22T04:58:41.399Z,21.30
2022-11-22T05:01:16.068Z,21.10
2022-11-22T05:03:53.228Z,20.90
2022-11-22T05:06:27.477Z,20.90
2022-11-22T05:09:02.544Z,21.10
2022-11-22T05:11:39.624Z,21.10
2022-11-22T05:14:16.225Z,21.20
2022-11-22T05:16:50.517Z,21.20
2022-11-22T05:19:27.546Z,21.20
2022-11-22T05:22:02.571Z,21.10
2022-11-22T05:24:35.009Z,21.00
2022-11-22T05:27:09.059Z,20.70
2022-11-22T05:29:43.779Z,20.90
2022-11-22T05:32:18.390Z,21.10
2022-11-22T05:34:55.530Z,21.10
2022-11-22T05:37:33.383Z,21.00
2022-11-22T05:40:08.324Z,20.90
2022-11-22T05:42:42.545Z,20.90
2022-11-22T05:45:18.799Z,21.10
2022-11-22T05:47:52.701Z,21.00
2022-11-22T05:50:29.778Z,20.80
2022-11-22T05:53:10.362Z,20.80
2022-11-22T05:55:45.092Z,20.90
2022-11-22T05:58:20.554Z,20.80
2022-11-22T06:00:54.965Z,20.80
2022-11-22T06:03:30.025Z,20.90
2022-11-22T06:06:06.845Z,20.90
2022-11-22T06:08:44.008Z,20.80
2022-11-22T06:11:22.327Z,20.70
2022-11-22T06:13:58.501Z,20.70
2022-11-22T06:16:33.955Z,20.90
2022-11-22T06:19:08.896Z,20.80
2022-11-22T06:21:45.474Z,20.90
2022-11-22T06:24:20.066Z,21.00
2022-11-22T06:26:54.780Z,21.10
2022-11-22T06:29:29.342Z,21.00
2022-11-22T06:32:04.354Z,21.00
2022-11-22T06:34:41.889Z,21.00
2022-11-22T06:37:33.186Z,20.90
2022-11-22T06:40:09.197Z,20.90
2022-11-22T06:42:44.526Z,21.00
2022-11-22T06:45:18.793Z,21.00
2022-11-22T06:47:54.039Z,21.00
2022-11-22T06:50:31.181Z,21.20
2022-11-22T06:53:17.126Z,21.30
2022-11-22T06:56:06.792Z,21.30
2022-11-22T06:58:42.300Z,21.20
2022-11-22T07:01:18.911Z,21.20
2022-11-22T07:03:59.869Z,20.90
2022-11-22T07:06:39.028Z,20.90
2022-11-22T07:09:17.491Z,20.90
2022-11-22T07:11:51.731Z,21.00
2022-11-22T07:14:27.268Z,21.20
2022-11-22T07:17:02.494Z,21.00
2022-11-22T07:19:37.152Z,21.10
2022-11-22T07:22:13.390Z,21.20
2022-11-22T07:24:52.855Z,21.20
2022-11-22T07:27:27.305Z,21.20
2022-11-22T07:30:02.322Z,21.20
2022-11-22T07:32:40.740Z,21.20
2022-11-22T07:35:17.559Z,21.10
2022-11-22T07:37:53.384Z,21.10
2022-11-22T07:40:31.216Z,21.10
2022-11-22T07:43:12.270Z,20.90
2022-11-22T07:45:47.902Z,21.00
2022-11-22T07:48:22.424Z,21.00
2022-11-22T07:51:00.296Z,21.10
2022-11-22T07:53:35.384Z,21.10
2022-11-22T07:56:13.970Z,21.10
2022-11-22T07:58:49.621Z,20.90
2022-11-22T08:01:27.848Z,21.00
2022-11-22T08:04:08.071Z,21.00
2022-11-22T08:06:43.446Z,20.90
2022-11-22T08:09:19.013Z,21.00
2022-11-22T08:11:56.350Z,20.80
2022-11-22T08:14:31.007Z,20.60
2022-11-22T08:17:05.144Z,20.80
2022-11-22T08:19:39.854Z,20.90
2022-11-22T08:22:13.974Z,20.80
2022-11-22T08:24:48.623Z,20.80
2022-11-22T08:27:27.694Z,20.90
2022-11-22T08:30:02.470Z,20.90
2022-11-22T08:32:36.976Z,20.80
2022-11-22T08:35:12.119Z,20.70
2022-11-22T08:37:46.808Z,20.60
2022-11-22T08:40:23.810Z,20.40
2022-11-22T08:43:02.453Z,20.50
2022-11-22T08:45:39.601Z,20.50
2022-11-22T08:48:17.700Z,20.40
2022-11-22T08:51:00.760Z,20.30
2022-11-22T08:53:36.039Z,20.30
2022-11-22T08:56:11.981Z,20.20
2022-11-22T08:58:48.499Z,20.00
2022-11-22T09:01:28.485Z,20.00
2022-11-22T09:04:04.970Z,20.00
2022-11-22T09:09:37.769Z,20.00
2022-11-22T09:12:14.188Z,20.00
2022-11-22T09:14:50.654Z,19.80
2022-11-22T09:17:24.604Z,19.80
2022-11-22T09:19:58.790Z,19.80
2022-11-22T09:22:33.241Z,19.80
2022-11-22T09:25:08.593Z,19.80
2022-11-22T09:27:43.230Z,19.70
2022-11-22T09:30:23.254Z,19.70
2022-11-22T09:33:00.086Z,19.70
2022-11-22T09:35:34.536Z,19.70
2022-11-22T09:38:10.194Z,19.60
2022-11-22T09:40:51.356Z,19.70
2022-11-22T09:43:38.149Z,19.60
2022-11-22T09:46:30.385Z,19.60
2022-11-22T09:49:33.591Z,19.50
2022-11-22T09:52:14.831Z,19.50
2022-11-22T09:54:53.394Z,19.40
2022-11-22T09:57:33.171Z,19.30
2022-11-22T10:00:09.714Z,19.20
2022-11-22T10:03:00.407Z,19.30
2022-11-22T10:05:40.054Z,19.20
2022-11-22T10:08:29.231Z,19.20
2022-11-22T10:11:05.118Z,19.20
2022-11-22T10:13:43.012Z,19.10
2022-11-22T10:16:23.335Z,19.10
2022-11-22T10:19:06.474Z,19.10
2022-11-22T10:21:41.411Z,19.10
2022-11-22T10:24:19.747Z,19.10
2022-11-22T10:26:53.951Z,19.10
2022-11-22T10:29:37.156Z,19.10
2022-11-22T10:32:20.917Z,19.10
2022-11-22T10:35:12.177Z,19.10
2022-11-22T10:37:53.813Z,19.10
2022-11-22T10:40:32.854Z,19.10
2022-11-22T10:43:35.484Z,19.00
2022-11-22T10:46:18.730Z,19.00
2022-11-22T10:49:03.231Z,19.00
2022-11-22T10:51:47.592Z,19.00
2022-11-22T10:54:27.861Z,18.90
2022-11-22T10:57:10.278Z,18.90
2022-11-22T10:59:59.445Z,18.80
2022-11-22T11:03:08.078Z,18.90
2022-11-22T11:06:20.937Z,18.90
2022-11-22T11:09:36.095Z,18.90
2022-11-22T11:11:47.155Z,18.90
2022-11-22T11:14:31.128Z,18.90
2022-11-22T11:17:07.347Z,18.80
2022-11-22T11:19:49.311Z,18.80
2022-11-22T11:22:50.301Z,18.80
2022-11-22T11:25:35.845Z,18.80
2022-11-22T11:28:12.656Z,18.80
2022-11-22T11:31:07.971Z,18.80
2022-11-22T11:33:53.144Z,18.80
2022-11-22T11:36:28.850Z,18.80
2022-11-22T11:39:04.629Z,18.80
2022-11-22T11:41:55.243Z,18.80
2022-11-22T11:44:38.027Z,18.80
2022-11-22T11:47:25.214Z,18.80
2022-11-22T11:49:59.297Z,18.70
2022-11-22T11:52:36.150Z,18.70
2022-11-22T11:55:23.228Z,18.70
2022-11-22T11:58:01.585Z,18.70
2022-11-22T12:00:43.990Z,18.70
2022-11-22T12:03:21.187Z,18.70
2022-11-22T12:06:18.832Z,18.70
2022-11-22T12:08:53.729Z,18.70
2022-11-22T12:11:36.869Z,18.70
2022-11-22T12:14:20.820Z,18.70
2022-11-22T12:16:59.677Z,18.60
2022-11-22T12:19:41.382Z,18.70
2022-11-22T12:22:48.311Z,18.60
2022-11-22T12:25:33.037Z,18.70
2022-11-22T12:28:24.491Z,18.60
2022-11-22T12:31:09.361Z,18.60
2022-11-22T12:33:58.456Z,18.50
2022-11-22T12:36:38.683Z,18.50
2022-11-22T12:39:19.776Z,18.50
2022-11-22T12:41:58.740Z,18.50
2022-11-22T12:44:37.804Z,18.50
2022-11-22T12:47:18.718Z,18.50
2022-11-22T12:49:55.989Z,18.50
2022-11-22T12:52:37.416Z,18.50
2022-11-22T12:55:20.329Z,18.50
2022-11-22T12:57:59.660Z,18.50
2022-11-22T13:00:38.887Z,18.50
2022-11-22T13:03:36.530Z,18.50
2022-11-22T13:06:22.919Z,18.50
2022-11-22T13:09:04.983Z,18.50
2022-11-22T13:11:50.543Z,18.50
2022-11-22T13:14:28.654Z,18.50
2022-11-22T13:17:03.536Z,18.40
2022-11-22T13:19:47.641Z,18.40
2022-11-22T13:22:36.460Z,18.40
2022-11-22T13:25:44.641Z,18.40
2022-11-22T13:28:35.760Z,18.40
2022-11-22T13:31:27.407Z,18.40
2022-11-22T13:34:27.451Z,18.40
2022-11-22T13:37:14.742Z,18.40
2022-11-22T13:39:51.734Z,18.40
2022-11-22T13:42:29.332Z,18.10
2022-11-22T13:45:27.575Z,18.00
2022-11-22T13:48:02.110Z,18.00
2022-11-22T13:51:06.324Z,18.10
2022-11-22T13:53:48.109Z,18.20
2022-11-22T13:56:54.704Z,18.10
2022-11-22T13:59:38.140Z,18.20
2022-11-22T14:02:49.496Z,18.10
2022-11-22T14:05:36.586Z,18.10
2022-11-22T14:08:39.478Z,18.10
2022-11-22T14:11:39.299Z,18.00
2022-11-22T14:17:58.932Z,17.90
2022-11-22T14:20:52.103Z,17.90
2022-11-22T14:23:44.531Z,17.90
2022-11-22T14:26:34.407Z,17.90
2022-11-22T14:29:50.682Z,17.90
2022-11-22T14:32:32.597Z,17.90
2022-11-22T14:35:31.939Z,17.90
2022-11-22T14:38:28.867Z,17.90
2022-11-22T14:41:48.707Z,17.90
2022-11-22T14:44:29.009Z,17.80
2022-11-22T14:47:09.176Z,17.80
2022-11-22T14:49:50.619Z,17.80
2022-11-22T14:52:31.271Z,17.80
2022-11-22T14:55:08.030Z,17.80
2022-11-22T14:57:44.057Z,17.60
2022-11-22T15:00:29.018Z,17.60
2022-11-22T15:03:45.583Z,17.60
2022-11-22T15:09:20.511Z,17.50
2022-11-22T15:09:56.680Z,17.50
2022-11-22T15:12:49.320Z,17.50
2022-11-22T15:57:57.015Z,17.30
2022-11-22T16:00:34.401Z,17.30
2022-11-22T16:03:32.250Z,17.30
2022-11-22T16:06:12.298Z,17.40
2022-11-22T16:08:53.167Z,17.40
2022-11-22T16:11:31.644Z,17.40
2022-11-22T16:14:06.974Z,17.30
2022-11-22T16:16:42.060Z,17.30
2022-11-22T16:19:30.783Z,17.30
2022-11-22T16:22:11.148Z,17.20
2022-11-22T16:24:46.413Z,17.20
2022-11-22T16:27:21.922Z,17.10
2022-11-22T16:29:57.634Z,17.10
2022-11-22T16:32:33.059Z,17.10
2022-11-22T16:35:30.385Z,17.10
2022-11-22T16:38:08.550Z,17.20
2022-11-22T16:40:50.186Z,17.10
2022-11-22T16:43:26.951Z,17.00
2022-11-22T16:46:02.219Z,16.90
2022-11-22T16:48:43.161Z,16.90
2022-11-22T16:51:24.539Z,16.90
2022-11-22T16:54:02.250Z,17.00
2022-11-22T16:56:38.393Z,17.10
2022-11-22T16:59:17.719Z,17.10
2022-11-22T17:01:52.245Z,17.10
2022-11-22T17:04:35.403Z,17.10
2022-11-22T17:07:17.122Z,17.10
2022-11-22T17:09:55.851Z,17.20
2022-11-22T17:12:33.867Z,17.20
2022-11-22T17:15:08.969Z,17.20
2022-11-22T17:17:47.194Z,17.10
2022-11-22T17:20:22.063Z,17.10
2022-11-22T17:22:58.946Z,17.10
2022-11-22T17:25:33.778Z,17.00
2022-11-22T17:28:09.486Z,17.00
2022-11-22T17:30:44.098Z,17.00
2022-11-22T17:33:22.827Z,17.00
2022-11-22T17:36:08.211Z,17.00
2022-11-22T17:38:47.308Z,16.80
2022-11-22T17:41:22.016Z,16.80
2022-11-22T17:43:57.522Z,16.80
2022-11-22T17:46:35.820Z,16.80
2022-11-22T17:49:16.039Z,16.80
2022-11-22T17:51:52.520Z,16.80
2022-11-22T17:54:29.675Z,16.90
2022-11-22T17:57:13.138Z,16.80
2022-11-22T18:00:01.354Z,16.80
2022-11-22T18:02:39.457Z,16.70
2022-11-22T18:05:17.708Z,16.70
2022-11-22T18:07:55.024Z,16.70
2022-11-22T18:10:37.710Z,16.60
2022-11-22T18:13:21.164Z,16.60
2022-11-22T18:16:06.220Z,16.50
2022-11-22T18:18:56.845Z,16.50
2022-11-22T18:21:33.609Z,16.50
2022-11-22T18:24:09.972Z,16.50
2022-11-22T18:26:46.980Z,16.50
2022-11-22T18:32:20.470Z,16.50
2022-11-22T18:34:55.076Z,16.50
2022-11-22T18:37:30.926Z,16.50
2022-11-22T18:40:05.999Z,16.40
2022-11-22T18:42:42.572Z,16.50
2022-11-22T18:45:16.857Z,16.50
2022-11-22T18:47:51.194Z,16.50
2022-11-22T18:50:25.327Z,16.40
2022-11-22T18:53:01.619Z,16.50
2022-11-22T18:55:37.714Z,16.50
2022-11-22T18:58:14.396Z,16.60
2022-11-22T19:00:48.622Z,16.60
2022-11-22T19:03:23.154Z,16.60
2022-11-22T19:05:57.601Z,16.60
2022-11-22T19:08:32.697Z,16.60
2022-11-22T19:11:07.751Z,16.50
2022-11-22T19:13:45.436Z,16.50
2022-11-22T19:16:20.981Z,16.50
2022-11-22T19:18:55.974Z,16.50
2022-11-22T19:21:35.455Z,16.50
2022-11-22T19:24:10.946Z,16.50
2022-11-22T19:26:45.848Z,16.50
2022-11-22T19:29:22.879Z,16.60
2022-11-22T19:31:57.749Z,16.60
2022-11-22T19:34:34.306Z,16.60
2022-11-22T19:37:08.688Z,16.60
2022-11-22T19:39:42.944Z,16.60
2022-11-22T19:42:18.204Z,16.60
2022-11-22T19:44:54.635Z,16.60
2022-11-22T19:47:29.378Z,16.60
2022-11-22T19:50:03.784Z,16.60
2022-11-22T19:52:40.865Z,16.60
2022-11-22T19:55:15.524Z,16.60
2022-11-22T19:57:50.660Z,16.60
2022-11-22T20:00:27.143Z,16.50
2022-11-22T20:03:02.271Z,16.60
2022-11-22T20:05:36.910Z,16.60
2022-11-22T20:08:11.734Z,16.70
2022-11-22T20:10:46.363Z,16.60
2022-11-22T20:13:20.698Z,16.60
2022-11-22T20:15:57.163Z,16.60
2022-11-22T20:18:31.400Z,16.60
2022-11-22T20:21:09.529Z,16.60
2022-11-22T20:23:44.261Z,16.70
2022-11-22T20:26:21.093Z,16.60
2022-11-22T20:29:01.627Z,16.60
2022-11-22T20:31:40.583Z,16.60
2022-11-22T20:34:16.920Z,16.60
2022-11-22T20:36:51.947Z,16.60
2022-11-22T20:39:26.269Z,16.60
2022-11-22T20:42:31.975Z,16.50
2022-11-22T20:44:57.091Z,16.60
2022-11-22T20:47:34.755Z,16.60
2022-11-22T20:50:09.651Z,16.60
2022-11-22T20:52:43.953Z,16.60
2022-11-22T20:55:18.057Z,16.60
2022-11-22T20:57:54.540Z,16.70
2022-11-22T21:00:29.309Z,16.70
2022-11-22T21:03:06.280Z,16.60
2022-11-22T21:05:40.795Z,16.60
2022-11-22T21:12:00.179Z,16.60
2022-11-22T21:14:34.494Z,16.50
2022-11-22T21:17:37.261Z,16.50
2022-11-22T21:20:07.288Z,16.40
2022-11-22T21:22:42.772Z,16.40
2022-11-22T21:25:17.719Z,16.40
2022-11-22T21:27:52.721Z,16.40
2022-11-22T21:30:27.117Z,16.30
2022-11-22T21:33:01.426Z,16.20
2022-11-22T21:35:37.730Z,16.10
2022-11-22T21:38:12.440Z,16.20
2022-11-22T21:41:05.634Z,16.20
2022-11-22T21:43:50.748Z,16.20
2022-11-22T21:46:26.616Z,16.10
2022-11-22T21:49:01.546Z,16.00
2022-11-22T21:51:37.515Z,15.90
2022-11-22T21:54:12.526Z,15.90
2022-11-22T21:56:49.433Z,15.90
2022-11-22T21:59:24.649Z,15.90
2022-11-22T22:01:59.003Z,15.90
2022-11-22T22:04:34.581Z,15.80
2022-11-22T22:07:29.669Z,15.80
2022-11-22T22:10:04.740Z,15.80
2022-11-22T22:12:41.012Z,15.80
2022-11-22T22:15:16.879Z,15.60
2022-11-22T22:17:52.344Z,15.60
2022-11-22T22:20:28.189Z,15.60
2022-11-22T22:23:04.470Z,15.60
2022-11-22T22:25:38.832Z,15.60
2022-11-22T22:28:13.740Z,15.50
2022-11-22T22:30:48.619Z,15.40
2022-11-22T22:33:24.020Z,15.40
2022-11-22T22:35:58.893Z,15.40
2022-11-22T22:38:35.839Z,15.40
2022-11-22T22:41:10.961Z,15.50
2022-11-22T22:43:47.470Z,15.50
2022-11-22T22:46:26.155Z,15.40
2022-11-22T22:49:01.668Z,15.40
2022-11-22T22:51:36.587Z,15.30
2022-11-22T22:54:14.188Z,15.30
2022-11-22T22:56:48.932Z,15.30
2022-11-22T22:59:23.342Z,15.40
2022-11-22T23:01:57.282Z,15.30
2022-11-22T23:04:31.568Z,15.40
2022-11-22T23:07:05.587Z,15.30
2022-11-22T23:09:42.816Z,15.30
2022-11-22T23:12:17.418Z,15.40
2022-11-22T23:14:51.606Z,15.40
2022-11-22T23:17:27.647Z,15.30
2022-11-22T23:20:02.835Z,15.30
2022-11-22T23:22:37.823Z,15.20
2022-11-22T23:25:15.519Z,15.20
2022-11-22T23:27:50.679Z,15.20
2022-11-22T23:30:25.497Z,15.30
2022-11-22T23:33:00.115Z,15.40
2022-11-22T23:35:40.664Z,15.40
2022-11-22T23:38:15.465Z,15.40
2022-11-22T23:40:59.058Z,15.40
2022-11-22T23:43:34.527Z,15.40
2022-11-22T23:46:15.571Z,15.40
2022-11-22T23:48:51.928Z,15.30
2022-11-22T23:51:27.847Z,15.30
2022-11-22T23:54:03.891Z,15.40
2022-11-22T23:56:40.607Z,15.30
2022-11-22T23:59:20.662Z,15.30
